sensor_id;sensor_type;location;lat;lon;timestamp;temperature;humidity
38902;DHT22;24661;53.566;9.910;2023-04-24T00:00:16;12.10;99.90
38902;DHT22;24661;53.566;9.910;2023-04-24T00:02:43;12.10;99.90
38902;DHT22;24661;53.566;9.910;2023-04-24T00:05:14;12.10;99.90
38902;DHT22;24661;53.566;9.910;2023-04-24T00:07:40;12.10;99.90
38902;DHT22;24661;53.566;9.910;2023-04-24T00:10:07;12.10;99.90
38902;DHT22;24661;53.566;9.910;2023-04-24T00:12:32;12.10;99.90
38902;DHT22;24661;53.566;9.910;2023-04-24T00:14:59;12.10;99.90
38902;DHT22;24661;53.566;9.910;2023-04-24T00:17:25;12.10;99.90
38902;DHT22;24661;53.566;9.910;2023-04-24T00:19:50;12.10;99.90
38902;DHT22;24661;53.566;9.910;2023-04-24T00:22:17;12.10;99.90
38902;DHT22;24661;53.566;9.910;2023-04-24T00:24:43;12.10;99.90
38902;DHT22;24661;53.566;9.910;2023-04-24T00:27:08;12.00;99.90
38902;DHT22;24661;53.566;9.910;2023-04-24T00:29:34;12.10;99.90
38902;DHT22;24661;53.566;9.910;2023-04-24T00:32:00;12.10;99.90
38902;DHT22;24661;53.566;9.910;2023-04-24T00:34:25;12.10;99.90
38902;DHT22;24661;53.566;9.910;2023-04-24T00:36:51;12.10;99.90
38902;DHT22;24661;53.566;9.910;2023-04-24T00:39:20;12.10;99.90
38902;DHT22;24661;53.566;9.910;2023-04-24T00:41:46;12.10;99.90
38902;DHT22;24661;53.566;9.910;2023-04-24T00:44:13;12.30;99.90
38902;DHT22;24661;53.566;9.910;2023-04-24T00:46:39;12.10;99.90
38902;DHT22;24661;53.566;9.910;2023-04-24T00:49:05;12.00;99.90
38902;DHT22;24661;53.566;9.910;2023-04-24T00:51:33;12.00;99.90
38902;DHT22;24661;53.566;9.910;2023-04-24T00:54:00;12.00;99.90
38902;DHT22;24661;53.566;9.910;2023-04-24T00:56:26;12.00;99.90
38902;DHT22;24661;53.566;9.910;2023-04-24T00:58:52;11.90;99.90
38902;DHT22;24661;53.566;9.910;2023-04-24T01:01:21;11.90;99.90
38902;DHT22;24661;53.566;9.910;2023-04-24T01:03:49;11.80;99.90
38902;DHT22;24661;53.566;9.910;2023-04-24T01:06:16;11.80;99.90
38902;DHT22;24661;53.566;9.910;2023-04-24T01:08:44;11.80;99.90
38902;DHT22;24661;53.566;9.910;2023-04-24T01:11:10;11.80;99.90
38902;DHT22;24661;53.566;9.910;2023-04-24T01:13:36;11.80;99.90
38902;DHT22;24661;53.566;9.910;2023-04-24T01:16:02;11.80;99.90
38902;DHT22;24661;53.566;9.910;2023-04-24T01:18:28;11.80;99.90
38902;DHT22;24661;53.566;9.910;2023-04-24T01:20:57;11.70;99.90
38902;DHT22;24661;53.566;9.910;2023-04-24T01:23:23;11.70;99.90
38902;DHT22;24661;53.566;9.910;2023-04-24T01:25:49;11.70;99.90
38902;DHT22;24661;53.566;9.910;2023-04-24T01:28:16;11.70;99.90
38902;DHT22;24661;53.566;9.910;2023-04-24T01:30:42;11.70;99.90
38902;DHT22;24661;53.566;9.910;2023-04-24T01:33:08;11.80;99.90
38902;DHT22;24661;53.566;9.910;2023-04-24T01:35:34;11.80;99.90
38902;DHT22;24661;53.566;9.910;2023-04-24T01:38:01;11.80;99.90
38902;DHT22;24661;53.566;9.910;2023-04-24T01:40:27;11.80;99.90
38902;DHT22;24661;53.566;9.910;2023-04-24T01:42:53;11.80;99.90
38902;DHT22;24661;53.566;9.910;2023-04-24T01:45:18;11.80;99.90
38902;DHT22;24661;53.566;9.910;2023-04-24T01:47:45;11.80;99.90
38902;DHT22;24661;53.566;9.910;2023-04-24T01:50:10;11.90;99.90
38902;DHT22;24661;53.566;9.910;2023-04-24T01:52:36;11.90;99.90
38902;DHT22;24661;53.566;9.910;2023-04-24T01:55:05;11.80;99.90
38902;DHT22;24661;53.566;9.910;2023-04-24T01:57:31;11.90;99.90
38902;DHT22;24661;53.566;9.910;2023-04-24T01:59:58;11.90;99.90
38902;DHT22;24661;53.566;9.910;2023-04-24T02:02:24;11.90;99.90
38902;DHT22;24661;53.566;9.910;2023-04-24T02:04:53;11.90;99.90
38902;DHT22;24661;53.566;9.910;2023-04-24T02:07:19;11.90;99.90
38902;DHT22;24661;53.566;9.910;2023-04-24T02:09:44;11.90;99.90
38902;DHT22;24661;53.566;9.910;2023-04-24T02:12:10;11.80;99.90
38902;DHT22;24661;53.566;9.910;2023-04-24T02:14:36;11.80;99.90
38902;DHT22;24661;53.566;9.910;2023-04-24T02:17:01;11.80;99.90
38902;DHT22;24661;53.566;9.910;2023-04-24T02:19:27;11.80;99.90
38902;DHT22;24661;53.566;9.910;2023-04-24T02:21:52;11.70;99.90
38902;DHT22;24661;53.566;9.910;2023-04-24T02:24:18;11.70;99.90
38902;DHT22;24661;53.566;9.910;2023-04-24T02:26:44;11.60;99.90
38902;DHT22;24661;53.566;9.910;2023-04-24T02:29:10;11.60;99.90
38902;DHT22;24661;53.566;9.910;2023-04-24T02:31:35;11.30;99.90
38902;DHT22;24661;53.566;9.910;2023-04-24T02:34:01;11.50;99.90
38902;DHT22;24661;53.566;9.910;2023-04-24T02:36:26;11.60;99.90
38902;DHT22;24661;53.566;9.910;2023-04-24T02:38:52;11.60;99.90
38902;DHT22;24661;53.566;9.910;2023-04-24T02:41:18;11.50;99.90
38902;DHT22;24661;53.566;9.910;2023-04-24T02:43:43;11.40;99.90
38902;DHT22;24661;53.566;9.910;2023-04-24T02:46:09;11.40;99.90
38902;DHT22;24661;53.566;9.910;2023-04-24T02:48:35;11.40;99.90
38902;DHT22;24661;53.566;9.910;2023-04-24T02:51:00;11.40;99.90
38902;DHT22;24661;53.566;9.910;2023-04-24T02:53:26;11.30;99.90
38902;DHT22;24661;53.566;9.910;2023-04-24T02:55:51;11.40;99.90
38902;DHT22;24661;53.566;9.910;2023-04-24T02:58:17;11.30;99.90
38902;DHT22;24661;53.566;9.910;2023-04-24T03:00:45;11.30;99.90
38902;DHT22;24661;53.566;9.910;2023-04-24T03:03:11;11.20;99.90
38902;DHT22;24661;53.566;9.910;2023-04-24T03:05:37;11.20;99.90
38902;DHT22;24661;53.566;9.910;2023-04-24T03:08:02;11.20;99.90
38902;DHT22;24661;53.566;9.910;2023-04-24T03:10:28;11.20;99.90
38902;DHT22;24661;53.566;9.910;2023-04-24T03:12:53;11.10;99.90
38902;DHT22;24661;53.566;9.910;2023-04-24T03:15:20;11.10;99.90
38902;DHT22;24661;53.566;9.910;2023-04-24T03:17:46;11.10;99.90
38902;DHT22;24661;53.566;9.910;2023-04-24T03:20:11;11.00;99.90
38902;DHT22;24661;53.566;9.910;2023-04-24T03:22:37;11.10;99.90
38902;DHT22;24661;53.566;9.910;2023-04-24T03:25:03;11.00;99.90
38902;DHT22;24661;53.566;9.910;2023-04-24T03:27:29;10.90;99.90
38902;DHT22;24661;53.566;9.910;2023-04-24T03:29:55;10.90;99.90
38902;DHT22;24661;53.566;9.910;2023-04-24T03:32:21;10.80;99.90
38902;DHT22;24661;53.566;9.910;2023-04-24T03:34:48;10.90;99.90
38902;DHT22;24661;53.566;9.910;2023-04-24T03:37:14;10.80;99.90
38902;DHT22;24661;53.566;9.910;2023-04-24T03:39:40;10.80;99.90
38902;DHT22;24661;53.566;9.910;2023-04-24T03:42:06;10.70;99.90
38902;DHT22;24661;53.566;9.910;2023-04-24T03:44:31;10.70;99.90
38902;DHT22;24661;53.566;9.910;2023-04-24T03:46:58;10.60;99.90
38902;DHT22;24661;53.566;9.910;2023-04-24T03:49:23;10.60;99.90
38902;DHT22;24661;53.566;9.910;2023-04-24T03:51:49;10.60;99.90
38902;DHT22;24661;53.566;9.910;2023-04-24T03:54:15;10.60;99.90
38902;DHT22;24661;53.566;9.910;2023-04-24T03:56:40;10.60;99.90
38902;DHT22;24661;53.566;9.910;2023-04-24T03:59:06;10.50;99.90
38902;DHT22;24661;53.566;9.910;2023-04-24T04:01:31;10.50;99.90
38902;DHT22;24661;53.566;9.910;2023-04-24T04:03:57;10.50;99.90
38902;DHT22;24661;53.566;9.910;2023-04-24T04:06:22;10.50;99.90
38902;DHT22;24661;53.566;9.910;2023-04-24T04:08:48;10.50;99.90
38902;DHT22;24661;53.566;9.910;2023-04-24T04:11:13;10.50;99.90
38902;DHT22;24661;53.566;9.910;2023-04-24T04:13:39;10.50;99.90
38902;DHT22;24661;53.566;9.910;2023-04-24T04:16:05;10.50;99.90
38902;DHT22;24661;53.566;9.910;2023-04-24T04:18:30;10.50;99.90
38902;DHT22;24661;53.566;9.910;2023-04-24T04:20:56;10.50;99.90
38902;DHT22;24661;53.566;9.910;2023-04-24T04:23:22;10.50;99.90
38902;DHT22;24661;53.566;9.910;2023-04-24T04:25:48;10.50;99.90
38902;DHT22;24661;53.566;9.910;2023-04-24T04:28:15;10.50;99.90
38902;DHT22;24661;53.566;9.910;2023-04-24T04:30:41;10.50;99.90
38902;DHT22;24661;53.566;9.910;2023-04-24T04:33:06;10.50;99.90
38902;DHT22;24661;53.566;9.910;2023-04-24T04:35:33;10.50;99.90
38902;DHT22;24661;53.566;9.910;2023-04-24T04:37:59;10.50;99.90
38902;DHT22;24661;53.566;9.910;2023-04-24T04:40:26;10.50;99.90
38902;DHT22;24661;53.566;9.910;2023-04-24T04:42:52;10.50;99.90
38902;DHT22;24661;53.566;9.910;2023-04-24T04:45:19;10.60;99.90
38902;DHT22;24661;53.566;9.910;2023-04-24T04:47:46;10.60;99.90
38902;DHT22;24661;53.566;9.910;2023-04-24T04:50:11;10.70;99.90
38902;DHT22;24661;53.566;9.910;2023-04-24T04:52:37;10.80;99.90
38902;DHT22;24661;53.566;9.910;2023-04-24T04:55:03;10.90;99.90
38902;DHT22;24661;53.566;9.910;2023-04-24T04:57:28;12.20;99.90
38902;DHT22;24661;53.566;9.910;2023-04-24T04:59:54;10.90;99.90
38902;DHT22;24661;53.566;9.910;2023-04-24T05:02:20;10.80;99.90
38902;DHT22;24661;53.566;9.910;2023-04-24T05:04:45;10.80;99.90
38902;DHT22;24661;53.566;9.910;2023-04-24T05:07:11;10.80;99.90
38902;DHT22;24661;53.566;9.910;2023-04-24T05:09:37;10.70;99.90
38902;DHT22;24661;53.566;9.910;2023-04-24T05:12:03;10.70;99.90
38902;DHT22;24661;53.566;9.910;2023-04-24T05:14:28;10.70;99.90
38902;DHT22;24661;53.566;9.910;2023-04-24T05:16:54;10.70;99.90
38902;DHT22;24661;53.566;9.910;2023-04-24T05:19:21;10.80;99.90
38902;DHT22;24661;53.566;9.910;2023-04-24T05:21:46;10.80;99.90
38902;DHT22;24661;53.566;9.910;2023-04-24T05:24:12;10.80;99.90
38902;DHT22;24661;53.566;9.910;2023-04-24T05:26:37;10.90;99.90
38902;DHT22;24661;53.566;9.910;2023-04-24T05:29:03;11.00;99.90
38902;DHT22;24661;53.566;9.910;2023-04-24T05:31:29;11.00;99.90
38902;DHT22;24661;53.566;9.910;2023-04-24T05:33:54;11.00;99.90
38902;DHT22;24661;53.566;9.910;2023-04-24T05:36:20;11.00;99.90
38902;DHT22;24661;53.566;9.910;2023-04-24T05:38:46;11.10;99.90
38902;DHT22;24661;53.566;9.910;2023-04-24T05:41:11;11.10;99.90
38902;DHT22;24661;53.566;9.910;2023-04-24T05:43:37;11.10;99.90
38902;DHT22;24661;53.566;9.910;2023-04-24T05:46:02;11.20;99.90
38902;DHT22;24661;53.566;9.910;2023-04-24T05:48:28;11.10;99.90
38902;DHT22;24661;53.566;9.910;2023-04-24T05:50:53;11.20;99.90
38902;DHT22;24661;53.566;9.910;2023-04-24T05:53:19;11.20;99.90
38902;DHT22;24661;53.566;9.910;2023-04-24T05:55:45;12.10;99.90
38902;DHT22;24661;53.566;9.910;2023-04-24T05:58:11;11.30;99.90
38902;DHT22;24661;53.566;9.910;2023-04-24T06:00:37;11.30;99.90
38902;DHT22;24661;53.566;9.910;2023-04-24T06:03:05;11.30;99.90
38902;DHT22;24661;53.566;9.910;2023-04-24T06:05:30;11.30;99.90
38902;DHT22;24661;53.566;9.910;2023-04-24T06:07:56;11.40;99.90
38902;DHT22;24661;53.566;9.910;2023-04-24T06:10:22;11.40;99.90
38902;DHT22;24661;53.566;9.910;2023-04-24T06:12:47;11.50;99.90
38902;DHT22;24661;53.566;9.910;2023-04-24T06:15:13;11.50;99.90
38902;DHT22;24661;53.566;9.910;2023-04-24T06:17:38;11.60;99.90
38902;DHT22;24661;53.566;9.910;2023-04-24T06:20:05;11.60;99.90
38902;DHT22;24661;53.566;9.910;2023-04-24T06:22:32;11.60;99.90
38902;DHT22;24661;53.566;9.910;2023-04-24T06:24:57;11.70;99.90
38902;DHT22;24661;53.566;9.910;2023-04-24T06:27:23;11.70;99.90
38902;DHT22;24661;53.566;9.910;2023-04-24T06:29:48;11.80;99.90
38902;DHT22;24661;53.566;9.910;2023-04-24T06:32:21;11.90;99.90
38902;DHT22;24661;53.566;9.910;2023-04-24T06:34:47;11.90;99.90
38902;DHT22;24661;53.566;9.910;2023-04-24T06:37:13;11.90;99.90
38902;DHT22;24661;53.566;9.910;2023-04-24T06:39:39;11.90;99.90
38902;DHT22;24661;53.566;9.910;2023-04-24T06:42:05;11.90;99.90
38902;DHT22;24661;53.566;9.910;2023-04-24T06:44:30;12.00;99.90
38902;DHT22;24661;53.566;9.910;2023-04-24T06:46:56;12.10;99.90
38902;DHT22;24661;53.566;9.910;2023-04-24T06:49:21;14.00;99.90
38902;DHT22;24661;53.566;9.910;2023-04-24T06:51:47;12.30;99.90
38902;DHT22;24661;53.566;9.910;2023-04-24T06:54:13;12.40;99.90
38902;DHT22;24661;53.566;9.910;2023-04-24T06:56:38;12.40;99.90
38902;DHT22;24661;53.566;9.910;2023-04-24T06:59:04;12.50;99.90
38902;DHT22;24661;53.566;9.910;2023-04-24T07:01:30;12.50;99.90
38902;DHT22;24661;53.566;9.910;2023-04-24T07:03:55;12.50;99.90
38902;DHT22;24661;53.566;9.910;2023-04-24T07:06:21;12.50;99.90
38902;DHT22;24661;53.566;9.910;2023-04-24T07:08:48;12.50;99.90
38902;DHT22;24661;53.566;9.910;2023-04-24T07:11:14;12.60;99.90
38902;DHT22;24661;53.566;9.910;2023-04-24T07:13:39;12.60;99.90
38902;DHT22;24661;53.566;9.910;2023-04-24T07:16:07;12.70;99.90
38902;DHT22;24661;53.566;9.910;2023-04-24T07:18:33;12.80;99.90
38902;DHT22;24661;53.566;9.910;2023-04-24T07:20:59;12.80;99.90
38902;DHT22;24661;53.566;9.910;2023-04-24T07:23:25;12.90;99.90
38902;DHT22;24661;53.566;9.910;2023-04-24T07:25:50;12.90;99.90
38902;DHT22;24661;53.566;9.910;2023-04-24T07:28:16;12.90;99.90
38902;DHT22;24661;53.566;9.910;2023-04-24T07:30:43;12.90;99.90
38902;DHT22;24661;53.566;9.910;2023-04-24T07:33:08;12.90;99.90
38902;DHT22;24661;53.566;9.910;2023-04-24T07:35:36;13.00;99.90
38902;DHT22;24661;53.566;9.910;2023-04-24T07:38:02;13.10;99.90
38902;DHT22;24661;53.566;9.910;2023-04-24T07:40:27;13.30;99.90
38902;DHT22;24661;53.566;9.910;2023-04-24T07:42:53;12.40;99.90
38902;DHT22;24661;53.566;9.910;2023-04-24T07:45:18;13.10;99.90
38902;DHT22;24661;53.566;9.910;2023-04-24T07:47:44;13.20;99.90
38902;DHT22;24661;53.566;9.910;2023-04-24T07:50:11;13.50;99.90
38902;DHT22;24661;53.566;9.910;2023-04-24T07:52:38;13.60;99.90
38902;DHT22;24661;53.566;9.910;2023-04-24T07:55:03;13.50;99.90
38902;DHT22;24661;53.566;9.910;2023-04-24T07:57:30;13.40;99.90
38902;DHT22;24661;53.566;9.910;2023-04-24T07:59:55;13.50;99.90
38902;DHT22;24661;53.566;9.910;2023-04-24T08:02:21;13.70;99.90
38902;DHT22;24661;53.566;9.910;2023-04-24T08:04:52;13.80;99.90
38902;DHT22;24661;53.566;9.910;2023-04-24T08:07:18;13.70;99.90
38902;DHT22;24661;53.566;9.910;2023-04-24T08:09:44;13.60;99.90
38902;DHT22;24661;53.566;9.910;2023-04-24T08:12:09;13.70;99.90
38902;DHT22;24661;53.566;9.910;2023-04-24T08:14:35;13.80;99.90
38902;DHT22;24661;53.566;9.910;2023-04-24T08:17:00;13.90;99.90
38902;DHT22;24661;53.566;9.910;2023-04-24T08:19:26;14.10;99.90
38902;DHT22;24661;53.566;9.910;2023-04-24T08:21:52;13.90;99.90
38902;DHT22;24661;53.566;9.910;2023-04-24T08:24:17;14.00;99.90
38902;DHT22;24661;53.566;9.910;2023-04-24T08:26:43;13.90;99.90
38902;DHT22;24661;53.566;9.910;2023-04-24T08:29:09;14.00;99.90
38902;DHT22;24661;53.566;9.910;2023-04-24T08:31:34;14.00;99.90
38902;DHT22;24661;53.566;9.910;2023-04-24T08:34:00;14.00;99.90
38902;DHT22;24661;53.566;9.910;2023-04-24T08:36:26;13.80;99.90
38902;DHT22;24661;53.566;9.910;2023-04-24T08:38:52;13.80;99.90
38902;DHT22;24661;53.566;9.910;2023-04-24T08:41:18;14.00;99.90
38902;DHT22;24661;53.566;9.910;2023-04-24T08:43:46;13.90;99.90
38902;DHT22;24661;53.566;9.910;2023-04-24T08:46:13;13.80;99.90
38902;DHT22;24661;53.566;9.910;2023-04-24T08:48:39;13.70;99.90
38902;DHT22;24661;53.566;9.910;2023-04-24T08:51:08;13.70;99.90
38902;DHT22;24661;53.566;9.910;2023-04-24T08:53:35;13.80;99.90
38902;DHT22;24661;53.566;9.910;2023-04-24T08:56:01;13.80;99.90
38902;DHT22;24661;53.566;9.910;2023-04-24T08:58:28;13.80;99.90
38902;DHT22;24661;53.566;9.910;2023-04-24T09:00:58;13.90;99.90
38902;DHT22;24661;53.566;9.910;2023-04-24T09:03:24;13.90;99.90
38902;DHT22;24661;53.566;9.910;2023-04-24T09:05:52;14.10;99.90
38902;DHT22;24661;53.566;9.910;2023-04-24T09:08:19;14.20;99.90
38902;DHT22;24661;53.566;9.910;2023-04-24T09:10:45;14.40;99.90
38902;DHT22;24661;53.566;9.910;2023-04-24T09:13:11;14.50;99.90
38902;DHT22;24661;53.566;9.910;2023-04-24T09:15:38;14.60;99.90
38902;DHT22;24661;53.566;9.910;2023-04-24T09:18:04;14.60;99.90
38902;DHT22;24661;53.566;9.910;2023-04-24T09:20:30;14.70;99.90
38902;DHT22;24661;53.566;9.910;2023-04-24T09:22:59;14.90;99.90
38902;DHT22;24661;53.566;9.910;2023-04-24T09:25:32;14.90;99.90
38902;DHT22;24661;53.566;9.910;2023-04-24T09:28:01;14.60;99.90
38902;DHT22;24661;53.566;9.910;2023-04-24T09:30:27;14.40;99.90
38902;DHT22;24661;53.566;9.910;2023-04-24T09:33:14;14.10;99.90
38902;DHT22;24661;53.566;9.910;2023-04-24T09:35:42;14.10;99.90
38902;DHT22;24661;53.566;9.910;2023-04-24T09:38:10;13.90;99.90
38902;DHT22;24661;53.566;9.910;2023-04-24T09:40:36;13.70;99.90
38902;DHT22;24661;53.566;9.910;2023-04-24T09:43:02;13.50;99.90
38902;DHT22;24661;53.566;9.910;2023-04-24T09:45:34;13.40;99.90
38902;DHT22;24661;53.566;9.910;2023-04-24T09:48:01;13.40;99.90
38902;DHT22;24661;53.566;9.910;2023-04-24T09:50:29;13.40;99.90
38902;DHT22;24661;53.566;9.910;2023-04-24T09:52:58;13.50;99.90
38902;DHT22;24661;53.566;9.910;2023-04-24T09:55:25;13.40;99.90
38902;DHT22;24661;53.566;9.910;2023-04-24T09:58:01;13.30;99.90
38902;DHT22;24661;53.566;9.910;2023-04-24T10:00:28;13.20;99.90
38902;DHT22;24661;53.566;9.910;2023-04-24T10:02:55;13.10;99.90
38902;DHT22;24661;53.566;9.910;2023-04-24T10:05:30;13.10;99.90
38902;DHT22;24661;53.566;9.910;2023-04-24T10:08:07;13.00;99.90
38902;DHT22;24661;53.566;9.910;2023-04-24T10:10:37;12.90;99.90
38902;DHT22;24661;53.566;9.910;2023-04-24T10:13:04;12.90;99.90
38902;DHT22;24661;53.566;9.910;2023-04-24T10:15:30;13.10;99.90
38902;DHT22;24661;53.566;9.910;2023-04-24T10:17:58;13.00;99.90
38902;DHT22;24661;53.566;9.910;2023-04-24T10:20:26;13.10;99.90
38902;DHT22;24661;53.566;9.910;2023-04-24T10:22:53;13.20;99.90
38902;DHT22;24661;53.566;9.910;2023-04-24T10:25:28;13.20;99.90
38902;DHT22;24661;53.566;9.910;2023-04-24T10:27:54;13.50;99.90
38902;DHT22;24661;53.566;9.910;2023-04-24T10:30:29;13.40;99.90
38902;DHT22;24661;53.566;9.910;2023-04-24T10:32:55;13.30;99.90
38902;DHT22;24661;53.566;9.910;2023-04-24T10:35:22;13.30;99.90
38902;DHT22;24661;53.566;9.910;2023-04-24T10:37:55;13.40;99.90
38902;DHT22;24661;53.566;9.910;2023-04-24T10:40:31;13.30;99.90
38902;DHT22;24661;53.566;9.910;2023-04-24T10:42:59;13.20;99.90
38902;DHT22;24661;53.566;9.910;2023-04-24T10:45:25;13.30;99.90
38902;DHT22;24661;53.566;9.910;2023-04-24T10:47:57;13.30;99.90
38902;DHT22;24661;53.566;9.910;2023-04-24T10:50:25;13.40;99.90
38902;DHT22;24661;53.566;9.910;2023-04-24T10:52:51;13.50;99.90
38902;DHT22;24661;53.566;9.910;2023-04-24T10:55:42;13.60;99.90
38902;DHT22;24661;53.566;9.910;2023-04-24T10:58:09;13.60;99.90
38902;DHT22;24661;53.566;9.910;2023-04-24T11:00:37;13.70;99.90
38902;DHT22;24661;53.566;9.910;2023-04-24T11:03:12;13.60;99.90
38902;DHT22;24661;53.566;9.910;2023-04-24T11:06:04;13.60;99.90
38902;DHT22;24661;53.566;9.910;2023-04-24T11:08:38;13.60;99.90
38902;DHT22;24661;53.566;9.910;2023-04-24T11:11:13;13.80;99.90
38902;DHT22;24661;53.566;9.910;2023-04-24T11:21:45;13.90;99.90
38902;DHT22;24661;53.566;9.910;2023-04-24T11:24:24;13.80;99.90
38902;DHT22;24661;53.566;9.910;2023-04-24T11:26:55;13.90;99.90
38902;DHT22;24661;53.566;9.910;2023-04-24T11:29:21;14.00;99.90
38902;DHT22;24661;53.566;9.910;2023-04-24T11:31:47;14.00;99.90
38902;DHT22;24661;53.566;9.910;2023-04-24T11:34:17;14.00;99.90
38902;DHT22;24661;53.566;9.910;2023-04-24T11:36:46;13.90;99.90
38902;DHT22;24661;53.566;9.910;2023-04-24T11:39:15;13.90;99.90
38902;DHT22;24661;53.566;9.910;2023-04-24T11:41:41;14.00;99.90
38902;DHT22;24661;53.566;9.910;2023-04-24T11:44:08;14.00;99.90
38902;DHT22;24661;53.566;9.910;2023-04-24T11:46:34;14.10;99.90
38902;DHT22;24661;53.566;9.910;2023-04-24T11:49:00;14.10;99.90
38902;DHT22;24661;53.566;9.910;2023-04-24T11:51:27;13.90;99.90
38902;DHT22;24661;53.566;9.910;2023-04-24T11:53:54;13.70;99.90
38902;DHT22;24661;53.566;9.910;2023-04-24T11:56:24;12.80;99.90
38902;DHT22;24661;53.566;9.910;2023-04-24T11:58:53;13.50;99.90
38902;DHT22;24661;53.566;9.910;2023-04-24T12:01:20;13.50;99.90
38902;DHT22;24661;53.566;9.910;2023-04-24T12:03:50;13.50;99.90
38902;DHT22;24661;53.566;9.910;2023-04-24T12:06:16;13.60;99.90
38902;DHT22;24661;53.566;9.910;2023-04-24T12:08:46;13.70;99.90
38902;DHT22;24661;53.566;9.910;2023-04-24T12:11:15;13.90;99.90
38902;DHT22;24661;53.566;9.910;2023-04-24T12:13:40;13.90;99.90
38902;DHT22;24661;53.566;9.910;2023-04-24T12:16:06;14.00;99.90
38902;DHT22;24661;53.566;9.910;2023-04-24T12:18:32;14.00;99.90
38902;DHT22;24661;53.566;9.910;2023-04-24T12:23:43;13.60;99.90
38902;DHT22;24661;53.566;9.910;2023-04-24T12:26:10;13.50;99.90
38902;DHT22;24661;53.566;9.910;2023-04-24T12:28:37;13.40;99.90
38902;DHT22;24661;53.566;9.910;2023-04-24T12:31:02;13.20;99.90
38902;DHT22;24661;53.566;9.910;2023-04-24T12:33:33;13.20;99.90
38902;DHT22;24661;53.566;9.910;2023-04-24T12:36:00;13.10;99.90
38902;DHT22;24661;53.566;9.910;2023-04-24T12:38:27;13.10;99.90
38902;DHT22;24661;53.566;9.910;2023-04-24T12:41:06;13.00;99.90
38902;DHT22;24661;53.566;9.910;2023-04-24T12:43:32;12.90;99.90
38902;DHT22;24661;53.566;9.910;2023-04-24T12:45:57;12.90;99.90
38902;DHT22;24661;53.566;9.910;2023-04-24T12:48:25;12.90;99.90
38902;DHT22;24661;53.566;9.910;2023-04-24T12:50:51;13.00;99.90
38902;DHT22;24661;53.566;9.910;2023-04-24T12:53:17;13.00;99.90
38902;DHT22;24661;53.566;9.910;2023-04-24T12:55:43;13.00;99.90
38902;DHT22;24661;53.566;9.910;2023-04-24T12:58:09;12.80;99.90
38902;DHT22;24661;53.566;9.910;2023-04-24T13:00:35;12.80;99.90
38902;DHT22;24661;53.566;9.910;2023-04-24T13:03:02;12.70;99.90
38902;DHT22;24661;53.566;9.910;2023-04-24T13:05:27;12.70;99.90
38902;DHT22;24661;53.566;9.910;2023-04-24T13:07:53;12.70;99.90
38902;DHT22;24661;53.566;9.910;2023-04-24T13:10:19;12.70;99.90
38902;DHT22;24661;53.566;9.910;2023-04-24T13:12:45;12.70;99.90
38902;DHT22;24661;53.566;9.910;2023-04-24T13:15:11;12.60;99.90
38902;DHT22;24661;53.566;9.910;2023-04-24T13:17:40;12.60;99.90
38902;DHT22;24661;53.566;9.910;2023-04-24T13:20:07;12.60;99.90
38902;DHT22;24661;53.566;9.910;2023-04-24T13:22:32;12.60;99.90
38902;DHT22;24661;53.566;9.910;2023-04-24T13:24:58;12.60;99.90
38902;DHT22;24661;53.566;9.910;2023-04-24T13:27:25;12.60;99.90
38902;DHT22;24661;53.566;9.910;2023-04-24T13:29:50;12.60;99.90
38902;DHT22;24661;53.566;9.910;2023-04-24T13:32:17;12.50;99.90
38902;DHT22;24661;53.566;9.910;2023-04-24T13:34:43;12.50;99.90
38902;DHT22;24661;53.566;9.910;2023-04-24T13:37:08;12.70;99.90
38902;DHT22;24661;53.566;9.910;2023-04-24T13:39:34;12.50;99.90
38902;DHT22;24661;53.566;9.910;2023-04-24T13:42:00;12.40;99.90
38902;DHT22;24661;53.566;9.910;2023-04-24T13:44:26;12.50;99.90
38902;DHT22;24661;53.566;9.910;2023-04-24T13:46:54;12.40;99.90
38902;DHT22;24661;53.566;9.910;2023-04-24T13:49:22;12.40;99.90
38902;DHT22;24661;53.566;9.910;2023-04-24T13:51:50;12.50;99.90
38902;DHT22;24661;53.566;9.910;2023-04-24T13:54:16;12.50;99.90
38902;DHT22;24661;53.566;9.910;2023-04-24T13:56:41;12.60;99.90
38902;DHT22;24661;53.566;9.910;2023-04-24T13:59:07;12.60;99.90
38902;DHT22;24661;53.566;9.910;2023-04-24T14:01:34;12.70;99.90
38902;DHT22;24661;53.566;9.910;2023-04-24T14:04:00;12.80;99.90
38902;DHT22;24661;53.566;9.910;2023-04-24T14:06:25;12.90;99.90
38902;DHT22;24661;53.566;9.910;2023-04-24T14:08:51;12.90;99.90
38902;DHT22;24661;53.566;9.910;2023-04-24T14:11:18;12.90;99.90
38902;DHT22;24661;53.566;9.910;2023-04-24T14:13:44;12.80;99.90
38902;DHT22;24661;53.566;9.910;2023-04-24T14:16:10;12.70;99.90
38902;DHT22;24661;53.566;9.910;2023-04-24T14:18:36;12.60;99.90
38902;DHT22;24661;53.566;9.910;2023-04-24T14:21:03;12.50;99.90
38902;DHT22;24661;53.566;9.910;2023-04-24T14:23:28;12.50;99.90
38902;DHT22;24661;53.566;9.910;2023-04-24T14:25:55;12.40;99.90
38902;DHT22;24661;53.566;9.910;2023-04-24T14:28:21;12.30;99.90
38902;DHT22;24661;53.566;9.910;2023-04-24T14:30:47;12.10;99.90
38902;DHT22;24661;53.566;9.910;2023-04-24T14:33:13;11.90;99.90
38902;DHT22;24661;53.566;9.910;2023-04-24T14:35:42;11.70;99.90
38902;DHT22;24661;53.566;9.910;2023-04-24T14:38:08;11.50;99.90
38902;DHT22;24661;53.566;9.910;2023-04-24T14:40:34;11.20;99.90
38902;DHT22;24661;53.566;9.910;2023-04-24T14:43:00;11.10;99.90
38902;DHT22;24661;53.566;9.910;2023-04-24T14:45:26;11.10;99.90
38902;DHT22;24661;53.566;9.910;2023-04-24T14:47:52;11.00;99.90
38902;DHT22;24661;53.566;9.910;2023-04-24T14:50:18;11.00;99.90
38902;DHT22;24661;53.566;9.910;2023-04-24T14:52:44;10.80;99.90
38902;DHT22;24661;53.566;9.910;2023-04-24T14:55:10;10.70;99.90
38902;DHT22;24661;53.566;9.910;2023-04-24T14:57:36;10.60;99.90
38902;DHT22;24661;53.566;9.910;2023-04-24T15:00:04;10.60;99.90
38902;DHT22;24661;53.566;9.910;2023-04-24T15:02:32;10.50;99.90
38902;DHT22;24661;53.566;9.910;2023-04-24T15:04:57;10.40;99.90
38902;DHT22;24661;53.566;9.910;2023-04-24T15:07:24;10.40;99.90
38902;DHT22;24661;53.566;9.910;2023-04-24T15:09:50;10.30;99.90
38902;DHT22;24661;53.566;9.910;2023-04-24T15:12:15;10.30;99.90
38902;DHT22;24661;53.566;9.910;2023-04-24T15:14:41;10.20;99.90
38902;DHT22;24661;53.566;9.910;2023-04-24T15:17:07;10.00;99.90
38902;DHT22;24661;53.566;9.910;2023-04-24T15:19:32;9.90;99.90
38902;DHT22;24661;53.566;9.910;2023-04-24T15:21:58;9.80;99.90
38902;DHT22;24661;53.566;9.910;2023-04-24T15:24:24;9.80;99.90
38902;DHT22;24661;53.566;9.910;2023-04-24T15:26:49;9.80;99.90
38902;DHT22;24661;53.566;9.910;2023-04-24T15:29:15;9.70;99.90
38902;DHT22;24661;53.566;9.910;2023-04-24T15:31:41;9.70;99.90
38902;DHT22;24661;53.566;9.910;2023-04-24T15:34:06;9.60;99.90
38902;DHT22;24661;53.566;9.910;2023-04-24T15:36:32;9.60;99.90